Time;durP1;ratioP1;P1;durP2;ratioP2;P2;SDS_P1;SDS_P2;PMS_P1;PMS_P2;Temp;Humidity;BMP_temperature;BMP_pressure;BME280_temperature;BME280_humidity;BME280_pressure;Samples;Min_cycle;Max_cycle;Signal;HPM_P1;HPM_P2
2021/01/23 00:01:31;;;;;;;22.30;15.87;;;;;;;;;;14999163;29;20253;-80
2021/01/23 00:08:59;;;;;;;22.83;16.43;;;;;;;;;;15003775;29;20441;-87
2021/01/23 00:16:28;;;;;;;23.17;17.27;;;;;;;;;;15014723;29;20214;-84
2021/01/23 00:23:56;;;;;;;22.10;16.60;;;11.30;78.00;;;;;;14985312;29;20186;-89
2021/01/23 00:31:23;;;;;;;21.60;16.60;;;11.90;75.90;;;;;;14980584;29;20288;-73
2021/01/23 00:38:50;;;;;;;20.57;15.47;;;10.60;75.80;;;;;;14993187;29;20655;-72
2021/01/23 00:46:17;;;;;;;23.83;16.23;;;11.40;75.30;;;;;;15008342;29;20531;-72
2021/01/23 00:53:44;;;;;;;21.53;15.60;;;;;;;;;;14996438;29;20229;-72
2021/01/23 01:01:14;;;;;;;21.43;16.73;;;10.60;74.40;;;;;;14992231;29;20623;-74
2021/01/23 01:08:42;;;;;;;20.90;16.33;;;;;;;;;;14990579;29;20213;-86
2021/01/23 01:16:09;;;;;;;18.47;15.77;;;10.80;78.20;;;;;;15032130;29;20230;-89
2021/01/23 01:23:38;;;;;;;21.13;16.17;;;;;;;;;;14999917;29;20214;-85
2021/01/23 01:31:05;;;;;;;20.27;16.90;;;;;;;;;;15001696;29;20206;-84
2021/01/23 01:38:32;;;;;;;23.27;16.20;;;;;;;;;;15006341;29;20209;-86
2021/01/23 01:46:00;;;;;;;21.23;15.43;;;;;;;;;;15025110;29;20312;-86
2021/01/23 01:53:27;;;;;;;19.37;15.73;;;;;;;;;;15015201;29;20218;-86
2021/01/23 02:00:54;;;;;;;23.03;16.37;;;;;;;;;;15065567;29;20250;-83
2021/01/23 02:08:27;;;;;;;21.50;17.10;;;;;;;;;;15011800;29;20221;-87
2021/01/23 02:16:00;;;;;;;25.00;17.10;;;11.10;73.40;;;;;;15011853;29;20297;-86
2021/01/23 02:23:33;;;;;;;21.37;17.40;;;10.60;73.60;;;;;;15005310;29;20691;-86
2021/01/23 02:31:06;;;;;;;24.77;18.73;;;;;;;;;;15007183;29;20209;-85
2021/01/23 02:38:34;;;;;;;22.23;17.37;;;;;;;;;;15021671;29;20210;-84
2021/01/23 02:46:00;;;;;;;23.73;19.37;;;;;;;;;;15022970;29;20601;-84
2021/01/23 02:53:34;;;;;;;27.17;19.33;;;8.30;72.90;;;;;;15003653;29;20302;-82
2021/01/23 03:01:03;;;;;;;22.87;18.50;;;;;;;;;;15020317;29;20186;-83
2021/01/23 03:08:32;;;;;;;23.17;17.03;;;;;;;;;;15007506;29;20308;-83
2021/01/23 03:15:59;;;;;;;23.07;16.67;;;;;;;;;;15003600;29;20240;-82
2021/01/23 03:23:29;;;;;;;21.37;17.37;;;;;;;;;;15003210;29;20194;-84
2021/01/23 03:31:00;;;;;;;19.97;17.20;;;;;;;;;;15020122;29;20214;-84
2021/01/23 03:38:27;;;;;;;24.13;17.00;;;;;;;;;;15003252;29;20671;-85
2021/01/23 03:45:53;;;;;;;18.90;15.87;;;;;;;;;;15008488;29;20238;-83
2021/01/23 03:53:21;;;;;;;19.90;15.47;;;;;;;;;;15019603;29;20237;-84
2021/01/23 04:00:48;;;;;;;20.53;15.83;;;;;;;;;;15002355;29;20206;-81
2021/01/23 04:08:16;;;;;;;18.63;15.73;;;;;;;;;;15018511;29;20226;-83
2021/01/23 04:15:44;;;;;;;21.63;16.70;;;;;;;;;;15016427;29;20724;-81
2021/01/23 04:23:10;;;;;;;18.87;15.67;;;;;;;;;;15016149;29;20198;-81
2021/01/23 04:30:36;;;;;;;20.37;15.77;;;;;;;;;;15016063;29;20684;-85
2021/01/23 04:38:05;;;;;;;20.37;15.20;;;;;;;;;;15015141;29;20202;-82
2021/01/23 04:45:32;;;;;;;19.40;15.10;;;;;;;;;;14997070;29;20229;-82
2021/01/23 04:53:02;;;;;;;20.67;15.43;;;;;;;;;;15020445;29;20201;-82
2021/01/23 05:00:31;;;;;;;21.87;16.20;;;;;;;;;;15019220;29;20189;-82
2021/01/23 05:08:08;;;;;;;20.20;15.90;;;10.80;77.50;;;;;;15000244;29;20214;-83
2021/01/23 05:15:35;;;;;;;17.87;14.80;;;;;;;;;;14996914;29;20225;-81
2021/01/23 05:23:03;;;;;;;21.00;16.17;;;;;;;;;;14980263;29;20562;-80
2021/01/23 05:30:53;;;;;;;25.27;14.77;;;10.00;76.40;;;;;;15012424;29;21039;-82
2021/01/23 05:38:20;;;;;;;16.70;14.43;;;;;;;;;;14994220;29;20202;-81
2021/01/23 05:45:49;;;;;;;20.60;16.00;;;;;;;;;;14995083;29;20566;-82
2021/01/23 05:53:16;;;;;;;18.43;14.77;;;9.50;83.20;;;;;;15011387;29;20233;-82
2021/01/23 06:00:43;;;;;;;18.00;15.07;;;;;;;;;;15011249;29;20237;-81
2021/01/23 06:08:11;;;;;;;17.57;14.87;;;;;;;;;;15009600;29;20234;-80
2021/01/23 06:15:40;;;;;;;17.23;15.17;;;;;;;;;;15010288;29;20760;-80
2021/01/23 06:23:07;;;;;;;17.30;15.00;;;;;;;;;;14995449;29;20283;-84
2021/01/23 06:30:34;;;;;;;20.17;16.13;;;;;;;;;;15015427;29;20210;-81
2021/01/23 06:38:12;;;;;;;13.87;10.83;;;;;;;;;;15010436;29;20524;-84
2021/01/23 06:45:40;;;;;;;17.90;14.23;;;;;;;;;;15009647;29;20254;-81
2021/01/23 06:53:08;;;;;;;19.43;14.53;;;10.60;78.60;;;;;;14992600;29;20226;-82
2021/01/23 07:00:35;;;;;;;19.63;14.70;;;;;;;;;;15009121;29;20295;-82
2021/01/23 07:08:04;;;;;;;19.93;15.87;;;;;;;;;;15016046;29;20217;-82
2021/01/23 07:15:38;;;;;;;20.33;14.70;;;;;;;;;;15022739;29;20217;-80
2021/01/23 07:23:05;;;;;;;19.37;15.23;;;;;;;;;;15025401;29;20723;-81
2021/01/23 07:30:34;;;;;;;18.90;14.10;;;;;;;;;;15016582;29;20206;-82
2021/01/23 07:38:01;;;;;;;19.27;15.87;;;;;;;;;;15001119;29;20233;-82
2021/01/23 07:45:30;;;;;;;22.27;13.70;;;;;;;;;;15018313;29;20565;-83
2021/01/23 07:52:56;;;;;;;16.37;13.07;;;;;;;;;;15024845;29;20572;-83
2021/01/23 08:00:23;;;;;;;26.90;14.17;;;;;;;;;;15008772;29;20214;-81
2021/01/23 08:07:54;;;;;;;19.03;14.63;;;;;;;;;;15018257;29;20638;-88
2021/01/23 08:15:25;;;;;;;17.57;13.43;;;;;;;;;;15049000;29;20245;-85
2021/01/23 08:23:06;;;;;;;18.00;14.07;;;9.30;77.10;;;;;;15016926;29;20285;-86
2021/01/23 08:30:36;;;;;;;18.50;14.27;;;;;;;;;;15007025;29;20252;-89
2021/01/23 08:38:05;;;;;;;19.20;15.03;;;;;;;;;;15004720;29;20202;-88
2021/01/23 08:45:32;;;;;;;19.70;14.47;;;;;;;;;;15005803;29;20230;-87
2021/01/23 08:52:59;;;;;;;18.63;13.77;;;;;;;;;;15024712;29;20225;-90
2021/01/23 09:00:27;;;;;;;23.23;14.50;;;;;;;;;;15040894;29;20214;-90
2021/01/23 09:07:54;;;;;;;20.93;14.80;;;;;;;;;;15012241;29;20214;-90
2021/01/23 09:15:21;;;;;;;18.97;14.63;;;;;;;;;;15021055;29;20230;-88
2021/01/23 09:22:49;;;;;;;21.30;14.20;;;;;;;;;;15017058;29;20226;-81
2021/01/23 09:30:16;;;;;;;19.33;14.57;;;;;;;;;;15000288;29;20263;-83
2021/01/23 09:37:44;;;;;;;19.17;14.13;;;;;;;;;;15012035;29;20580;-81
2021/01/23 09:45:12;;;;;;;18.60;14.33;;;;;;;;;;15000072;29;20704;-88
2021/01/23 09:52:40;;;;;;;17.33;14.87;;;;;;;;;;15016679;29;20209;-82
2021/01/23 10:00:07;;;;;;;22.43;15.70;;;;;;;;;;15013290;29;20704;-82
2021/01/23 10:07:40;;;;;;;24.73;17.47;;;;;;;;;;15012333;29;20320;-86
2021/01/23 10:15:07;;;;;;;25.53;18.83;;;;;;;;;;15011459;29;20216;-86
2021/01/23 10:22:34;;;;;;;26.60;17.57;;;;;;;;;;14993955;29;20206;-84
2021/01/23 10:30:02;;;;;;;27.83;17.60;;;;;;;;;;15014313;29;20316;-83
2021/01/23 10:37:29;;;;;;;22.63;15.77;;;10.40;83.90;;;;;;15012030;29;20240;-83
2021/01/23 10:44:55;;;;;;;24.37;16.00;;;;;;;;;;15003114;29;20244;-84
2021/01/23 10:52:23;;;;;;;29.53;18.13;;;;;;;;;;14989855;29;20234;-82
2021/01/23 10:59:50;;;;;;;20.63;17.10;;;;;;;;;;15022375;29;20234;-82
2021/01/23 11:07:16;;;;;;;24.33;17.63;;;;;;;;;;15023114;29;20217;-85
2021/01/23 11:14:45;;;;;;;22.37;17.03;;;;;;;;;;15022999;29;20720;-81
2021/01/23 11:22:13;;;;;;;24.63;17.10;;;;;;;;;;15020437;29;20206;-86
2021/01/23 11:29:40;;;;;;;21.80;17.40;;;;;;;;;;15026119;29;20274;-85
2021/01/23 11:37:10;;;;;;;23.37;17.13;;;;;;;;;;15019438;29;20178;-84
2021/01/23 11:44:37;;;;;;;27.57;17.63;;;;;;;;;;15011436;29;20313;-84
2021/01/23 11:52:04;;;;;;;22.63;16.83;;;;;;;;;;14985179;29;20775;-80
2021/01/23 11:59:33;;;;;;;21.67;16.47;;;;;;;;;;15016122;29;20577;-83
2021/01/23 12:07:04;;;;;;;22.90;15.73;;;;;;;;;;15001188;29;20210;-84
2021/01/23 12:14:32;;;;;;;22.77;16.87;;;;;;;;;;15017160;29;20700;-85
2021/01/23 12:22:00;;;;;;;24.67;17.87;;;;;;;;;;15016458;29;20558;-82
2021/01/23 12:29:27;;;;;;;26.77;18.77;;;;;;;;;;15014567;29;20603;-79
2021/01/23 12:36:55;;;;;;;23.97;18.57;;;;;;;;;;15015386;29;20321;-82
2021/01/23 12:44:24;;;;;;;23.80;16.47;;;13.70;77.40;;;;;;15014668;29;20244;-83
2021/01/23 12:51:51;;;;;;;26.13;17.33;;;;;;;;;;15024116;29;20700;-83
2021/01/23 12:59:19;;;;;;;23.03;16.77;;;;;;;;;;15035494;29;20289;-85
2021/01/23 13:06:46;;;;;;;23.03;16.30;;;;;;;;;;15015693;29;21121;-83
2021/01/23 13:14:14;;;;;;;24.77;17.40;;;;;;;;;;14996323;29;20265;-82
2021/01/23 13:21:41;;;;;;;17.60;11.87;;;;;;;;;;14995985;29;20202;-82
2021/01/23 13:29:08;;;;;;;10.47;6.40;;;;;;;;;;15013361;29;20261;-84
2021/01/23 13:36:34;;;;;;;8.40;4.70;;;;;;;;;;14996630;29;20566;-80
2021/01/23 13:44:02;;;;;;;15.93;9.13;;;;;;;;;;15013732;29;20245;-85
2021/01/23 13:51:30;;;;;;;20.47;11.07;;;;;;;;;;14996693;29;20210;-85
2021/01/23 13:58:57;;;;;;;10.10;6.57;;;;;;;;;;15029968;29;20230;-76
2021/01/23 14:06:25;;;;;;;9.13;4.57;;;;;;;;;;15009043;29;20665;-78
2021/01/23 14:13:52;;;;;;;9.80;7.40;;;;;;;;;;14991791;29;20274;-76
2021/01/23 14:21:19;;;;;;;11.77;6.93;;;;;;;;;;14992426;29;20233;-77
2021/01/23 14:28:46;;;;;;;20.37;15.67;;;;;;;;;;15009536;29;20310;-77
2021/01/23 14:36:12;;;;;;;21.70;16.50;;;;;;;;;;14991486;29;20683;-77
2021/01/23 14:43:39;;;;;;;22.73;16.87;;;11.70;78.90;;;;;;14991891;29;20256;-77
2021/01/23 14:51:07;;;;;;;26.47;17.63;;;;;;;;;;15007927;29;20230;-75
2021/01/23 14:58:33;;;;;;;25.03;17.10;;;11.90;78.90;;;;;;14990196;29;20580;-76
2021/01/23 15:06:02;;;;;;;24.90;17.57;;;;;;;;;;14974840;29;20218;-75
2021/01/23 15:13:31;;;;;;;21.37;16.17;;;;;;;;;;14990588;29;20225;-75
2021/01/23 15:21:00;;;;;;;24.33;17.03;;;;;;;;;;14988534;29;20210;-74
2021/01/23 15:28:27;;;;;;;26.77;16.77;;;;;;;;;;14995008;29;20758;-75
2021/01/23 15:35:55;;;;;;;26.93;17.40;;;;;;;;;;15029457;29;20461;-92
2021/01/23 15:43:27;;;;;;;25.77;19.30;;;;;;;;;;15024913;29;20186;-84
2021/01/23 15:50:57;;;;;;;27.10;17.27;;;;;;;;;;15005855;29;20220;-84
2021/01/23 15:58:26;;;;;;;16.93;12.37;;;;;;;;;;15032446;29;20317;-87
2021/01/23 16:06:00;;;;;;;15.13;11.23;;;;;;;;;;14975933;29;20665;-82
2021/01/23 16:13:29;;;;;;;20.60;11.10;;;;;;;;;;14988539;29;20589;-84
2021/01/23 16:20:56;;;;;;;13.77;9.23;;;;;;;;;;15021959;29;20679;-88
2021/01/23 16:28:25;;;;;;;14.00;8.90;;;;;;;;;;15021101;29;20252;-80
2021/01/23 16:35:52;;;;;;;14.67;9.60;;;;;;;;;;15018506;29;20206;-89
2021/01/23 16:43:20;;;;;;;18.27;9.70;;;;;;;;;;15016193;29;20706;-75
2021/01/23 16:50:50;;;;;;;17.20;9.57;;;;;;;;;;15010288;29;20233;-75
2021/01/23 16:58:17;;;;;;;14.23;9.93;;;;;;;;;;15013888;29;20230;-74
2021/01/23 17:05:44;;;;;;;13.43;9.87;;;;;;;;;;15012706;29;20205;-73
2021/01/23 17:13:11;;;;;;;16.10;10.37;;;;;;;;;;15014055;29;20253;-74
2021/01/23 17:20:38;;;;;;;16.57;11.70;;;;;;;;;;14982160;29;20206;-74
2021/01/23 17:28:05;;;;;;;18.63;10.90;;;;;;;;;;15013429;29;20619;-73
2021/01/23 17:35:34;;;;;;;16.23;11.07;;;12.40;77.80;;;;;;14991547;29;20202;-75
2021/01/23 17:43:00;;;;;;;14.20;9.83;;;14.00;77.20;;;;;;14978571;29;20210;-74
2021/01/23 17:50:27;;;;;;;15.87;9.43;;;;;;;;;;14993124;29;20240;-74
2021/01/23 17:57:55;;;;;;;15.73;10.03;;;12.60;70.40;;;;;;14994273;29;20293;-76
2021/01/23 18:05:21;;;;;;;16.37;10.43;;;12.10;74.00;;;;;;14977806;29;20234;-74
2021/01/23 18:12:48;;;;;;;15.27;10.43;;;11.40;69.30;;;;;;14994113;29;20277;-74
2021/01/23 18:20:18;;;;;;;14.77;9.90;;;13.10;74.60;;;;;;15010069;29;20302;-75
2021/01/23 18:27:45;;;;;;;14.87;10.57;;;13.30;74.50;;;;;;15006199;29;20217;-76
2021/01/23 18:35:12;;;;;;;16.40;10.73;;;11.80;73.80;;;;;;14992638;29;20759;-76
2021/01/23 18:42:40;;;;;;;18.27;11.23;;;12.70;74.00;;;;;;15008866;29;20681;-76
2021/01/23 18:50:09;;;;;;;17.77;11.53;;;12.50;69.90;;;;;;15009870;29;20593;-76
2021/01/23 18:57:36;;;;;;;17.27;11.90;;;;;;;;;;15006386;29;20650;-75
2021/01/23 19:05:04;;;;;;;20.93;13.20;;;11.50;69.30;;;;;;15016557;29;20210;-80
2021/01/23 19:12:32;;;;;;;16.53;12.13;;;;;;;;;;14988803;29;20265;-78
2021/01/23 19:19:59;;;;;;;20.50;14.30;;;;;;;;;;15021355;29;20593;-74
2021/01/23 19:27:28;;;;;;;18.60;13.70;;;;;;;;;;15015110;29;20233;-78
2021/01/23 19:42:37;;;;;;;18.20;12.57;;;11.80;79.10;;;;;;15017292;29;20620;-76
2021/01/23 19:50:21;;;;;;;15.87;12.57;;;;;;;;;;14999125;29;20214;-80
2021/01/23 19:57:49;;;;;;;15.80;12.47;;;11.70;74.10;;;;;;14983362;29;20600;-83
2021/01/23 20:05:16;;;;;;;16.10;14.40;;;;;;;;;;15000322;29;20221;-81
2021/01/23 20:12:50;;;;;;;18.03;13.70;;;;;;;;;;14999197;29;20285;-86
2021/01/23 20:20:19;;;;;;;17.07;13.87;;;;;;;;;;14988752;29;20214;-92
2021/01/23 20:27:47;;;;;;;19.17;15.43;;;;;;;;;;15007683;29;20214;-86
2021/01/23 20:35:16;;;;;;;22.00;15.33;;;;;;;;;;15004575;29;20607;-81
2021/01/23 20:42:45;;;;;;;20.27;14.63;;;;;;;;;;15025733;29;20489;-84
2021/01/23 20:50:13;;;;;;;21.77;16.77;;;;;;;;;;15005521;29;20224;-84
2021/01/23 20:57:41;;;;;;;22.27;17.47;;;;;;;;;;15027182;29;20238;-86
2021/01/23 21:05:10;;;;;;;22.90;18.67;;;;;;;;;;14999671;29;20217;-81
2021/01/23 21:12:39;;;;;;;19.93;16.73;;;;;;;;;;14997462;29;20225;-79
2021/01/23 21:20:07;;;;;;;18.43;16.30;;;;;;;;;;15017954;29;20214;-87
2021/01/23 21:27:35;;;;;;;21.57;18.73;;;;;;;;;;15016740;29;20222;-85
2021/01/23 21:35:02;;;;;;;19.73;17.60;;;;;;;;;;14993781;29;20186;-80
2021/01/23 21:42:30;;;;;;;17.40;15.60;;;;;;;;;;15013332;29;20201;-85
2021/01/23 21:49:58;;;;;;;18.70;16.20;;;;;;;;;;15013922;29;20229;-82
2021/01/23 21:57:25;;;;;;;19.20;17.33;;;;;;;;;;14991584;29;20238;-82
2021/01/23 22:04:52;;;;;;;19.17;17.13;;;;;;;;;;15008624;29;20202;-84
2021/01/23 22:12:22;;;;;;;18.97;16.73;;;;;;;;;;15009370;29;20229;-84
2021/01/23 22:19:49;;;;;;;21.03;17.37;;;;;;;;;;14976809;29;20656;-84
2021/01/23 22:27:16;;;;;;;18.93;16.93;;;;;;;;;;14990065;29;20328;-87
2021/01/23 22:34:47;;;;;;;18.53;16.63;;;;;;;;;;14992504;29;20557;-84
2021/01/23 22:42:14;;;;;;;21.17;17.23;;;;;;;;;;15001589;29;20617;-82
2021/01/23 22:49:41;;;;;;;19.03;17.00;;;;;;;;;;15017549;29;20233;-82
2021/01/23 22:57:11;;;;;;;19.57;16.50;;;;;;;;;;15017281;29;20313;-83
2021/01/23 23:04:38;;;;;;;19.47;17.47;;;;;;;;;;14991389;29;20198;-81
2021/01/23 23:12:06;;;;;;;23.77;20.50;;;;;;;;;;14991550;29;20234;-81
2021/01/23 23:19:34;;;;;;;22.50;20.10;;;;;;;;;;15020179;29;20214;-88
2021/01/23 23:27:01;;;;;;;24.37;21.90;;;;;;;;;;14972137;29;20214;-90
2021/01/23 23:34:28;;;;;;;24.57;21.53;;;;;;;;;;15034936;29;20218;-89
2021/01/23 23:41:56;;;;;;;24.90;21.80;;;;;;;;;;15011066;29;20198;-72
2021/01/23 23:49:23;;;;;;;21.07;18.77;;;;;;;;;;14993077;29;20222;-73
2021/01/23 23:56:50;;;;;;;23.37;18.93;;;;;;;;;;15011182;29;20233;-74
